Time;durP1;ratioP1;P1;durP2;ratioP2;P2;SDS_P1;SDS_P2;PMS_P1;PMS_P2;Temp;Humidity;BMP_temperature;BMP_pressure;BME280_temperature;BME280_humidity;BME280_pressure;Samples;Min_cycle;Max_cycle;Signal;HPM_P1;HPM_P2
2022/04/13 00:02:22;;;;;;;;;;;21.10;41.50;;;;;;5164788;27;19922;-54
2022/04/13 00:04:48;;;;;;;;;;;21.20;41.30;;;;;;5169637;27;19923;-57
2022/04/13 00:07:14;;;;;;;;;;;21.30;41.20;;;;;;5164141;27;20384;-58
2022/04/13 00:09:40;;;;;;;;;;;21.20;41.30;;;;;;5169590;27;19923;-57
2022/04/13 00:12:06;;;;;;;;;;;21.20;41.40;;;;;;5164362;27;19923;-53
2022/04/13 00:14:31;;;;;;;;;;;21.30;41.10;;;;;;5143821;27;19926;-55
2022/04/13 00:16:57;;;;;;;;;;;21.30;41.00;;;;;;5168968;27;19933;-57
2022/04/13 00:19:24;;;;;;;;;;;21.20;41.20;;;;;;5164390;27;19922;-55
2022/04/13 00:21:50;;;;;;;;;;;21.10;41.40;;;;;;5164249;27;19924;-51
2022/04/13 00:24:16;;;;;;;;;;;21.20;41.40;;;;;;5169212;27;19991;-56
2022/04/13 00:26:41;;;;;;;;;;;21.10;41.60;;;;;;5164073;27;19927;-54
2022/04/13 00:29:07;;;;;;;;;;;21.10;41.60;;;;;;5167545;27;19927;-58
2022/04/13 00:31:33;;;;;;;;;;;21.10;41.80;;;;;;5166281;27;20405;-56
2022/04/13 00:33:59;;;;;;;;;;;21.20;41.40;;;;;;5161474;27;19972;-56
2022/04/13 00:36:24;;;;;;;;;;;21.20;41.20;;;;;;5169028;27;19927;-57
2022/04/13 00:38:50;;;;;;;;;;;21.20;41.10;;;;;;5145526;27;19922;-57
2022/04/13 00:41:17;;;;;;;;;;;21.10;41.40;;;;;;5144566;27;19975;-56
2022/04/13 00:43:43;;;;;;;;;;;21.10;41.40;;;;;;5168918;27;19922;-57
2022/04/13 00:46:09;;;;;;;;;;;21.10;41.40;;;;;;5163379;27;19922;-57
2022/04/13 00:48:35;;;;;;;;;;;21.20;41.40;;;;;;5165003;27;19931;-55
2022/04/13 00:51:01;;;;;;;;;;;21.00;41.90;;;;;;5166785;27;19923;-54
2022/04/13 00:53:27;;;;;;;;;;;21.20;41.40;;;;;;5163036;27;19962;-55
2022/04/13 00:55:55;;;;;;;;;;;21.20;41.30;;;;;;5169168;27;19930;-55
2022/04/13 00:58:27;;;;;;;;;;;21.10;41.50;;;;;;5164056;27;19923;-58
2022/04/13 01:00:53;;;;;;;;;;;21.20;41.20;;;;;;5163171;27;20342;-55
2022/04/13 01:03:20;;;;;;;;;;;21.20;41.20;;;;;;5169133;27;19933;-56
2022/04/13 01:05:46;;;;;;;;;;;21.10;41.10;;;;;;5163367;27;20070;-57
2022/04/13 01:08:13;;;;;;;;;;;21.10;41.20;;;;;;5163841;27;20467;-57
2022/04/13 01:10:45;;;;;;;;;;;21.10;41.30;;;;;;5166674;27;20017;-52
2022/04/13 01:13:11;;;;;;;;;;;21.10;41.30;;;;;;5162744;27;19923;-56
2022/04/13 01:15:37;;;;;;;;;;;21.10;41.20;;;;;;5166660;27;20285;-56
2022/04/13 01:18:03;;;;;;;;;;;21.20;41.10;;;;;;5165897;27;19924;-54
2022/04/13 01:20:29;;;;;;;;;;;21.20;40.80;;;;;;5163029;27;19927;-57
2022/04/13 01:22:55;;;;;;;;;;;21.10;40.90;;;;;;5168428;27;19926;-57
2022/04/13 01:25:21;;;;;;;;;;;21.10;41.20;;;;;;5163227;27;19991;-49
2022/04/13 01:27:46;;;;;;;;;;;21.30;40.70;;;;;;5162462;27;19923;-59
2022/04/13 01:30:12;;;;;;;;;;;21.20;41.10;;;;;;5167334;27;20311;-53
2022/04/13 01:32:38;;;;;;;;;;;21.10;41.20;;;;;;5162985;27;19929;-57
2022/04/13 01:35:04;;;;;;;;;;;21.20;41.00;;;;;;5164302;27;19990;-57
2022/04/13 01:37:30;;;;;;;;;;;21.10;41.20;;;;;;5167973;27;19927;-56
2022/04/13 01:39:56;;;;;;;;;;;21.10;41.10;;;;;;5162845;27;19923;-56
2022/04/13 01:42:21;;;;;;;;;;;21.20;41.00;;;;;;5168067;27;20405;-52
2022/04/13 01:44:48;;;;;;;;;;;21.10;41.20;;;;;;5163245;27;19934;-55
2022/04/13 01:47:14;;;;;;;;;;;21.20;41.00;;;;;;5161028;27;19926;-56
2022/04/13 01:49:39;;;;;;;;;;;21.20;41.00;;;;;;5167479;27;20451;-55
2022/04/13 01:52:05;;;;;;;;;;;21.00;41.50;;;;;;5162175;27;20441;-55
2022/04/13 01:54:31;;;;;;;;;;;21.10;41.30;;;;;;5141997;27;19929;-57
2022/04/13 01:56:57;;;;;;;;;;;21.10;41.20;;;;;;5167471;27;19922;-55
2022/04/13 01:59:23;;;;;;;;;;;21.20;40.80;;;;;;5162486;27;19929;-56
2022/04/13 02:01:50;;;;;;;;;;;21.10;40.90;;;;;;5167794;27;20021;-57
2022/04/13 02:04:22;;;;;;;;;;;21.10;41.00;;;;;;5162851;27;20274;-55
2022/04/13 02:06:48;;;;;;;;;;;21.20;40.80;;;;;;5160633;27;19927;-55
2022/04/13 02:09:14;;;;;;;;;;;21.10;41.00;;;;;;5167505;27;19951;-57
2022/04/13 02:11:40;;;;;;;;;;;21.10;40.90;;;;;;5162786;27;20053;-50
2022/04/13 02:14:05;;;;;;;;;;;21.00;41.20;;;;;;5162243;27;20635;-56
2022/04/13 02:16:31;;;;;;;;;;;21.30;40.60;;;;;;5148807;27;20323;-52
2022/04/13 02:18:57;;;;;;;;;;;21.00;41.00;;;;;;5162033;27;20382;-54
2022/04/13 02:21:23;;;;;;;;;;;21.20;40.70;;;;;;5166305;27;20432;-57
2022/04/13 02:23:48;;;;;;;;;;;21.20;40.80;;;;;;5162311;27;20334;-54
2022/04/13 02:26:14;;;;;;;;;;;21.10;40.90;;;;;;5161532;27;19931;-57
2022/04/13 02:28:42;;;;;;;;;;;21.20;40.80;;;;;;5167692;27;19927;-54
2022/04/13 02:31:07;;;;;;;;;;;21.00;41.10;;;;;;5162319;27;19930;-56
2022/04/13 02:33:33;;;;;;;;;;;21.10;40.80;;;;;;5161398;27;20358;-54
2022/04/13 02:35:59;;;;;;;;;;;21.10;40.80;;;;;;5167685;27;20289;-54
2022/04/13 02:38:25;;;;;;;;;;;21.00;40.90;;;;;;5161721;27;19975;-53
2022/04/13 02:40:51;;;;;;;;;;;21.10;40.60;;;;;;5159441;27;20369;-58
2022/04/13 02:43:17;;;;;;;;;;;21.20;40.40;;;;;;5164538;27;19945;-48
2022/04/13 02:45:43;;;;;;;;;;;21.10;40.70;;;;;;5161673;27;19923;-57
2022/04/13 02:48:09;;;;;;;;;;;21.10;40.60;;;;;;5167796;27;20371;-55
2022/04/13 02:50:34;;;;;;;;;;;21.00;40.80;;;;;;5161816;27;19982;-52
2022/04/13 02:53:00;;;;;;;;;;;21.10;40.70;;;;;;5161225;27;20340;-57
2022/04/13 02:55:26;;;;;;;;;;;21.20;40.50;;;;;;5167258;27;19923;-53
2022/04/13 02:57:52;;;;;;;;;;;21.00;40.80;;;;;;5161771;27;19926;-59
2022/04/13 03:00:17;;;;;;;;;;;21.30;40.30;;;;;;5161667;27;19979;-48
2022/04/13 03:02:44;;;;;;;;;;;21.00;40.90;;;;;;5165542;27;19923;-56
2022/04/13 03:05:10;;;;;;;;;;;21.30;40.30;;;;;;5145909;27;20425;-52
2022/04/13 03:07:36;;;;;;;;;;;21.00;40.80;;;;;;5170919;27;20362;-55
2022/04/13 03:10:05;;;;;;;;;;;21.30;40.20;;;;;;5164772;27;19926;-56
2022/04/13 03:12:34;;;;;;;;;;;21.10;40.40;;;;;;5165099;27;19923;-53
2022/04/13 03:15:01;;;;;;;;;;;21.20;40.30;;;;;;5170372;27;20411;-56
2022/04/13 03:17:27;;;;;;;;;;;21.20;40.20;;;;;;5165561;27;20021;-53
2022/04/13 03:19:53;;;;;;;;;;;21.10;40.30;;;;;;5163419;27;19928;-54
2022/04/13 03:22:21;;;;;;;;;;;21.10;40.00;;;;;;5169784;27;20373;-48
2022/04/13 03:24:47;;;;;;;;;;;21.10;40.10;;;;;;5165123;27;19976;-53
2022/04/13 03:27:13;;;;;;;;;;;21.30;39.70;;;;;;5168459;27;20274;-56
2022/04/13 03:29:38;;;;;;;;;;;21.10;40.10;;;;;;5167261;27;19923;-54
2022/04/13 03:32:05;;;;;;;;;;;21.10;40.10;;;;;;5164705;27;19922;-57
2022/04/13 03:34:30;;;;;;;;;;;21.10;40.00;;;;;;5170347;27;20013;-54
2022/04/13 03:36:57;;;;;;;;;;;21.20;39.90;;;;;;5165342;27;19923;-56
2022/04/13 03:39:23;;;;;;;;;;;21.10;39.80;;;;;;5162844;27;20067;-55
2022/04/13 03:41:50;;;;;;;;;;;21.20;39.80;;;;;;5170095;27;19927;-55
2022/04/13 03:44:16;;;;;;;;;;;21.20;39.50;;;;;;5165239;27;20420;-57
2022/04/13 03:46:41;;;;;;;;;;;21.10;39.80;;;;;;5164825;27;19927;-55
2022/04/13 03:49:08;;;;;;;;;;;21.10;39.60;;;;;;5151139;27;19990;-55
2022/04/13 03:51:34;;;;;;;;;;;21.00;39.80;;;;;;5164454;27;19945;-58
2022/04/13 03:54:00;;;;;;;;;;;21.10;39.50;;;;;;5170355;27;19923;-58
2022/04/13 03:56:25;;;;;;;;;;;21.00;39.80;;;;;;5162965;27;20002;-57
2022/04/13 03:58:51;;;;;;;;;;;21.20;39.40;;;;;;5164130;27;19922;-51
2022/04/13 04:01:17;;;;;;;;;;;20.90;39.90;;;;;;5151620;27;19923;-58
2022/04/13 04:03:43;;;;;;;;;;;21.20;39.40;;;;;;5164876;27;19927;-48
2022/04/13 04:06:09;;;;;;;;;;;21.00;39.90;;;;;;5145224;27;20522;-58
2022/04/13 04:08:35;;;;;;;;;;;21.30;39.30;;;;;;5169922;27;20324;-54
2022/04/13 04:11:01;;;;;;;;;;;21.20;39.50;;;;;;5163985;27;19933;-55
2022/04/13 04:13:26;;;;;;;;;;;21.10;39.60;;;;;;5170025;27;19926;-57
2022/04/13 04:15:52;;;;;;;;;;;21.00;39.50;;;;;;5161234;27;19922;-55
2022/04/13 04:18:18;;;;;;;;;;;21.20;39.40;;;;;;5163521;27;19923;-55
2022/04/13 04:20:44;;;;;;;;;;;21.10;39.40;;;;;;5169834;27;20014;-46
2022/04/13 04:23:09;;;;;;;;;;;20.90;39.80;;;;;;5163786;27;20004;-54
2022/04/13 04:25:36;;;;;;;;;;;21.20;39.20;;;;;;5144845;27;20097;-57
2022/04/13 04:28:03;;;;;;;;;;;21.10;39.50;;;;;;5169635;27;19922;-56
2022/04/13 04:30:31;;;;;;;;;;;21.00;39.50;;;;;;5164025;27;19943;-55
2022/04/13 04:32:57;;;;;;;;;;;21.10;39.30;;;;;;5168795;27;20347;-56
2022/04/13 04:35:23;;;;;;;;;;;21.10;39.30;;;;;;5163462;27;19923;-47
2022/04/13 04:37:49;;;;;;;;;;;21.10;39.50;;;;;;5163835;27;19971;-54
2022/04/13 04:40:15;;;;;;;;;;;21.10;39.40;;;;;;5169679;27;19987;-48
2022/04/13 04:42:48;;;;;;;;;;;21.20;39.40;;;;;;5163602;27;20327;-51
2022/04/13 04:45:19;;;;;;;;;;;21.20;39.20;;;;;;5163795;27;20017;-51
2022/04/13 04:47:45;;;;;;;;;;;21.10;39.50;;;;;;5168976;27;19948;-56
2022/04/13 04:50:11;;;;;;;;;;;21.30;39.20;;;;;;5145453;27;20334;-57
2022/04/13 04:52:43;;;;;;;;;;;21.00;39.50;;;;;;5161745;27;19926;-49
2022/04/13 04:55:09;;;;;;;;;;;21.10;39.40;;;;;;5168404;27;19933;-57
2022/04/13 04:57:35;;;;;;;;;;;21.20;39.20;;;;;;5163818;27;20426;-51
2022/04/13 05:00:01;;;;;;;;;;;21.00;39.60;;;;;;5168887;27;19930;-55
2022/04/13 05:02:27;;;;;;;;;;;21.30;39.20;;;;;;5163487;27;19954;-50
2022/04/13 05:04:53;;;;;;;;;;;21.00;39.70;;;;;;5163658;27;19929;-58
2022/04/13 05:07:19;;;;;;;;;;;21.20;39.30;;;;;;5168683;27;19926;-48
2022/04/13 05:09:45;;;;;;;;;;;21.00;39.60;;;;;;5163789;27;20328;-52
2022/04/13 05:12:11;;;;;;;;;;;21.20;39.30;;;;;;5161086;27;19990;-53
2022/04/13 05:14:36;;;;;;;;;;;21.10;39.50;;;;;;5168531;27;19927;-54
2022/04/13 05:17:02;;;;;;;;;;;21.10;39.40;;;;;;5163800;27;20358;-49
2022/04/13 05:19:28;;;;;;;;;;;20.90;39.70;;;;;;5166181;27;20018;-57
2022/04/13 05:21:54;;;;;;;;;;;21.10;39.50;;;;;;5165683;27;19923;-52
2022/04/13 05:24:20;;;;;;;;;;;21.00;39.60;;;;;;5162977;27;19923;-55
2022/04/13 05:26:45;;;;;;;;;;;21.30;39.20;;;;;;5168812;27;20263;-49
2022/04/13 05:29:11;;;;;;;;;;;21.10;39.50;;;;;;5161258;27;19975;-53
2022/04/13 05:31:37;;;;;;;;;;;21.20;39.40;;;;;;5162609;27;19934;-56
2022/04/13 05:34:03;;;;;;;;;;;21.00;39.70;;;;;;5168602;27;19923;-56
2022/04/13 05:36:29;;;;;;;;;;;21.30;39.20;;;;;;5163083;27;20397;-52
2022/04/13 05:38:54;;;;;;;;;;;20.90;39.80;;;;;;5163638;27;19922;-56
2022/04/13 05:41:20;;;;;;;;;;;21.10;39.30;;;;;;5167577;27;19930;-49
2022/04/13 05:43:46;;;;;;;;;;;21.00;39.60;;;;;;5162571;27;19922;-51
2022/04/13 05:46:12;;;;;;;;;;;21.30;39.00;;;;;;5168848;27;19926;-47
2022/04/13 05:48:37;;;;;;;;;;;21.00;39.30;;;;;;5160608;27;19922;-57
2022/04/13 05:51:03;;;;;;;;;;;21.30;38.80;;;;;;5162366;27;20771;-54
2022/04/13 05:53:29;;;;;;;;;;;21.00;39.50;;;;;;5168513;27;19949;-57
2022/04/13 05:55:58;;;;;;;;;;;21.10;39.30;;;;;;5142194;27;20384;-56
2022/04/13 05:58:24;;;;;;;;;;;21.00;39.40;;;;;;5162147;27;19922;-54
2022/04/13 06:00:49;;;;;;;;;;;21.10;39.30;;;;;;5167966;27;19941;-52
2022/04/13 06:03:17;;;;;;;;;;;21.10;39.20;;;;;;5162541;27;20013;-54
2022/04/13 06:05:44;;;;;;;;;;;21.00;39.50;;;;;;5167429;27;19933;-55
2022/04/13 06:08:09;;;;;;;;;;;21.10;39.20;;;;;;5161370;27;19926;-56
2022/04/13 06:10:35;;;;;;;;;;;21.10;39.20;;;;;;5143672;27;20302;-53
2022/04/13 06:13:01;;;;;;;;;;;21.10;39.30;;;;;;5167947;27;19950;-49
2022/04/13 06:15:28;;;;;;;;;;;21.10;39.30;;;;;;5161819;27;19923;-54
2022/04/13 06:17:54;;;;;;;;;;;21.30;38.90;;;;;;5162034;27;20013;-54
2022/04/13 06:20:20;;;;;;;;;;;21.10;39.20;;;;;;5167220;27;19966;-53
2022/04/13 06:22:46;;;;;;;;;;;21.10;39.30;;;;;;5162693;27;20009;-54
2022/04/13 06:25:12;;;;;;;;;;;21.20;39.00;;;;;;5161329;27;20297;-53
2022/04/13 06:27:38;;;;;;;;;;;21.00;39.10;;;;;;5162153;27;19937;-54
2022/04/13 06:30:04;;;;;;;;;;;21.10;39.10;;;;;;5162544;27;20307;-57
2022/04/13 06:32:37;;;;;;;;;;;21.10;39.00;;;;;;5167570;27;19930;-54
2022/04/13 06:35:03;;;;;;;;;;;21.00;39.20;;;;;;5141698;27;19923;-55
2022/04/13 06:37:29;;;;;;;;;;;21.30;38.80;;;;;;5161999;27;19930;-56
2022/04/13 06:39:55;;;;;;;;;;;21.20;39.00;;;;;;5166561;27;19923;-53
2022/04/13 06:42:22;;;;;;;;;;;21.10;39.30;;;;;;5162376;27;20041;-55
2022/04/13 06:44:49;;;;;;;;;;;21.10;39.30;;;;;;5159844;27;19929;-55
2022/04/13 06:47:14;;;;;;;;;;;21.10;39.40;;;;;;5167058;27;19923;-54
2022/04/13 06:49:40;;;;;;;;;;;21.10;39.40;;;;;;5162114;27;20026;-56
2022/04/13 06:52:06;;;;;;;;;;;21.20;39.20;;;;;;5166924;27;19926;-56
2022/04/13 06:54:32;;;;;;;;;;;21.20;39.10;;;;;;5161587;27;20275;-56
2022/04/13 06:56:57;;;;;;;;;;;21.10;39.30;;;;;;5161416;27;19923;-57
2022/04/13 06:59:23;;;;;;;;;;;21.10;39.20;;;;;;5167702;27;19927;-57
2022/04/13 07:01:49;;;;;;;;;;;21.30;39.00;;;;;;5159926;27;19930;-56
2022/04/13 07:04:15;;;;;;;;;;;21.30;39.10;;;;;;5161116;27;19995;-55
2022/04/13 07:06:40;;;;;;;;;;;21.30;39.10;;;;;;5167356;27;20359;-56
2022/04/13 07:09:06;;;;;;;;;;;21.20;39.10;;;;;;5151147;27;19927;-58
2022/04/13 07:11:32;;;;;;;;;;;21.30;38.90;;;;;;5155471;27;20278;-56
2022/04/13 07:13:58;;;;;;;;;;;21.20;39.00;;;;;;5143249;27;19929;-54
2022/04/13 07:16:24;;;;;;;;;;;21.20;39.20;;;;;;5162063;27;19972;-57
2022/04/13 07:18:49;;;;;;;;;;;21.10;39.00;;;;;;5167340;27;19947;-56
2022/04/13 07:21:16;;;;;;;;;;;21.20;38.90;;;;;;5143494;27;20370;-55
2022/04/13 07:23:42;;;;;;;;;;;21.30;38.80;;;;;;5152161;27;20313;-54
2022/04/13 07:26:07;;;;;;;;;;;21.30;38.90;;;;;;5165466;27;19926;-52
2022/04/13 07:28:33;;;;;;;;;;;21.30;39.10;;;;;;5161924;27;19926;-57
2022/04/13 07:30:59;;;;;;;;;;;21.30;39.20;;;;;;5167200;27;20404;-53
2022/04/13 07:33:25;;;;;;;;;;;21.30;39.40;;;;;;5161814;27;19980;-52
2022/04/13 07:35:51;;;;;;;;;;;21.20;39.60;;;;;;5161676;27;19923;-55
2022/04/13 07:38:17;;;;;;;;;;;21.20;39.70;;;;;;5167230;27;19923;-58
2022/04/13 07:40:44;;;;;;;;;;;21.20;39.60;;;;;;5161350;27;19929;-55
2022/04/13 07:43:09;;;;;;;;;;;21.30;39.40;;;;;;5137327;27;20104;-57
2022/04/13 07:45:35;;;;;;;;;;;21.30;39.30;;;;;;5167032;27;19929;-54
2022/04/13 07:48:01;;;;;;;;;;;21.30;39.30;;;;;;5161688;27;19927;-54
2022/04/13 07:50:30;;;;;;;;;;;21.40;39.30;;;;;;5164844;27;19922;-58
2022/04/13 07:52:56;;;;;;;;;;;21.30;39.30;;;;;;5169277;27;19927;-57
2022/04/13 07:55:22;;;;;;;;;;;21.40;39.30;;;;;;5165125;27;19949;-54
2022/04/13 07:57:48;;;;;;;;;;;21.30;39.30;;;;;;5170505;27;19954;-59
2022/04/13 08:00:14;;;;;;;;;;;21.40;39.30;;;;;;5162188;27;20410;-57
2022/04/13 08:02:40;;;;;;;;;;;21.30;39.60;;;;;;5141806;27;20039;-56
2022/04/13 08:05:07;;;;;;;;;;;21.30;39.40;;;;;;5170450;27;20460;-56
2022/04/13 08:07:33;;;;;;;;;;;21.30;39.50;;;;;;5164791;27;19927;-54
2022/04/13 08:09:59;;;;;;;;;;;21.50;39.30;;;;;;5164978;27;19933;-54
2022/04/13 08:12:28;;;;;;;;;;;21.50;39.40;;;;;;5170355;27;20289;-57
2022/04/13 08:14:54;;;;;;;;;;;21.50;39.60;;;;;;5164843;27;19927;-55
2022/04/13 08:17:20;;;;;;;;;;;21.50;39.60;;;;;;5169888;27;19931;-59
2022/04/13 08:19:46;;;;;;;;;;;21.60;39.60;;;;;;5159027;27;19926;-59
2022/04/13 08:22:13;;;;;;;;;;;21.50;39.40;;;;;;5164211;27;19946;-55
2022/04/13 08:24:38;;;;;;;;;;;21.60;39.30;;;;;;5169989;27;19934;-54
2022/04/13 08:27:06;;;;;;;;;;;21.60;39.40;;;;;;5164537;27;19923;-59
2022/04/13 08:29:31;;;;;;;;;;;21.60;39.30;;;;;;5164278;27;19962;-53
2022/04/13 08:31:57;;;;;;;;;;;21.70;39.10;;;;;;5169868;27;20022;-53
2022/04/13 08:34:23;;;;;;;;;;;21.60;39.00;;;;;;5141352;27;20075;-58
2022/04/13 08:36:49;;;;;;;;;;;21.60;38.90;;;;;;5169578;27;19974;-57
2022/04/13 08:39:14;;;;;;;;;;;21.70;38.40;;;;;;5165015;27;19930;-57
2022/04/13 08:41:45;;;;;;;;;;;21.70;38.50;;;;;;5164434;27;20333;-58
2022/04/13 08:44:12;;;;;;;;;;;21.70;38.80;;;;;;5151208;27;19974;-56
2022/04/13 08:46:38;;;;;;;;;;;21.70;38.80;;;;;;5138635;27;19929;-57
2022/04/13 08:49:04;;;;;;;;;;;21.80;38.60;;;;;;5157660;27;19957;-55
2022/04/13 08:51:30;;;;;;;;;;;21.80;38.60;;;;;;5169819;27;20422;-56
2022/04/13 08:54:08;;;;;;;;;;;21.80;38.70;;;;;;5163753;27;20327;-57
2022/04/13 08:56:34;;;;;;;;;;;21.80;38.90;;;;;;5145276;27;20462;-57
2022/04/13 08:59:01;;;;;;;;;;;21.80;38.80;;;;;;5169522;27;19922;-56
2022/04/13 09:01:27;;;;;;;;;;;21.80;38.40;;;;;;5163591;27;19933;-58
2022/04/13 09:03:54;;;;;;;;;;;22.00;37.90;;;;;;5169495;27;19931;-57
2022/04/13 09:06:20;;;;;;;;;;;22.00;37.80;;;;;;5159511;27;19923;-59
2022/04/13 09:08:56;;;;;;;;;;;22.00;37.30;;;;;;5143825;27;19929;-59
2022/04/13 09:11:22;;;;;;;;;;;22.10;36.90;;;;;;5150696;27;20422;-56
2022/04/13 09:13:49;;;;;;;;;;;22.00;37.10;;;;;;5163668;27;19926;-58
2022/04/13 09:16:15;;;;;;;;;;;22.00;37.00;;;;;;5163507;27;19927;-57
2022/04/13 09:18:44;;;;;;;;;;;22.00;37.00;;;;;;5169090;27;19951;-57
2022/04/13 09:21:13;;;;;;;;;;;22.10;36.60;;;;;;5163497;27;19923;-56
2022/04/13 09:23:39;;;;;;;;;;;22.10;36.70;;;;;;5163417;27;20130;-58
2022/04/13 09:26:05;;;;;;;;;;;22.10;36.80;;;;;;5163122;27;20187;-55
2022/04/13 09:28:31;;;;;;;;;;;22.10;36.80;;;;;;5163404;27;19923;-58
2022/04/13 09:30:57;;;;;;;;;;;22.00;37.10;;;;;;5168954;27;19923;-57
2022/04/13 09:33:25;;;;;;;;;;;22.00;37.00;;;;;;5163445;27;19930;-57
2022/04/13 09:35:53;;;;;;;;;;;22.10;36.90;;;;;;5163109;27;19923;-56
2022/04/13 09:38:19;;;;;;;;;;;22.10;37.10;;;;;;5168785;27;20400;-57
2022/04/13 09:40:45;;;;;;;;;;;22.10;36.90;;;;;;5163228;27;20047;-54
2022/04/13 09:43:18;;;;;;;;;;;22.20;36.90;;;;;;5159480;27;19939;-55
2022/04/13 09:45:44;;;;;;;;;;;22.20;36.70;;;;;;5167521;27;20397;-55
2022/04/13 09:48:10;;;;;;;;;;;22.30;36.10;;;;;;5163193;27;20009;-59
2022/04/13 09:50:37;;;;;;;;;;;22.30;35.60;;;;;;5163137;27;20274;-53
2022/04/13 09:53:05;;;;;;;;;;;22.30;35.70;;;;;;5168426;27;19923;-58
2022/04/13 09:55:38;;;;;;;;;;;22.30;34.10;;;;;;5163111;27;20408;-58
2022/04/13 09:58:07;;;;;;;;;;;22.50;32.30;;;;;;5168662;27;19933;-57
2022/04/13 10:00:33;;;;;;;;;;;22.50;31.70;;;;;;5164113;27;19922;-55
2022/04/13 10:03:15;;;;;;;;;;;22.40;32.40;;;;;;5156975;27;20532;-57
2022/04/13 10:05:42;;;;;;;;;;;22.50;32.30;;;;;;5168493;27;20006;-54
2022/04/13 10:08:08;;;;;;;;;;;22.50;32.40;;;;;;5163044;27;20033;-59
2022/04/13 10:10:35;;;;;;;;;;;22.50;32.50;;;;;;5162898;27;19974;-58
2022/04/13 10:13:01;;;;;;;;;;;22.50;32.50;;;;;;5167695;27;20288;-56
2022/04/13 10:15:26;;;;;;;;;;;22.30;32.80;;;;;;5162486;27;19927;-59
2022/04/13 10:17:59;;;;;;;;;;;21.30;34.60;;;;;;5162808;27;20175;-60
2022/04/13 10:20:28;;;;;;;;;;;21.30;35.10;;;;;;5164021;27;19949;-58
2022/04/13 10:23:00;;;;;;;;;;;21.50;34.90;;;;;;5161249;27;19923;-59
2022/04/13 10:25:26;;;;;;;;;;;21.50;35.10;;;;;;5162526;27;19927;-60
2022/04/13 10:27:53;;;;;;;;;;;21.70;34.90;;;;;;5168105;27;19923;-59
2022/04/13 10:30:35;;;;;;;;;;;21.70;35.00;;;;;;5162382;27;19930;-59
2022/04/13 10:33:07;;;;;;;;;;;21.70;35.10;;;;;;5165829;27;19931;-60
2022/04/13 10:35:34;;;;;;;;;;;21.80;35.20;;;;;;5167178;27;21166;-59
2022/04/13 10:38:00;;;;;;;;;;;21.70;35.50;;;;;;5160024;27;19923;-60
2022/04/13 10:40:32;;;;;;;;;;;21.60;35.50;;;;;;5164788;27;20013;-60
2022/04/13 10:42:59;;;;;;;;;;;21.60;35.40;;;;;;5162390;27;19923;-59
2022/04/13 10:45:25;;;;;;;;;;;21.60;35.60;;;;;;5162426;27;19922;-59
2022/04/13 10:48:06;;;;;;;;;;;21.70;35.70;;;;;;5167963;27;20398;-58
2022/04/13 10:50:48;;;;;;;;;;;21.70;35.90;;;;;;5162562;27;20281;-60
2022/04/13 10:53:14;;;;;;;;;;;21.60;36.00;;;;;;5162189;27;19927;-60
2022/04/13 10:55:40;;;;;;;;;;;21.60;36.20;;;;;;5167571;27;19927;-60
2022/04/13 10:58:12;;;;;;;;;;;21.60;36.50;;;;;;5138140;27;19949;-60
2022/04/13 11:00:37;;;;;;;;;;;21.60;36.70;;;;;;5162188;27;19923;-60
2022/04/13 11:03:04;;;;;;;;;;;21.60;36.90;;;;;;5167655;27;19931;-59
2022/04/13 11:05:33;;;;;;;;;;;21.70;36.80;;;;;;5162057;27;19927;-60
2022/04/13 11:08:18;;;;;;;;;;;21.60;37.10;;;;;;5162486;27;20006;-58
2022/04/13 11:10:50;;;;;;;;;;;21.70;36.90;;;;;;5167520;27;19986;-60
2022/04/13 11:13:16;;;;;;;;;;;21.70;36.80;;;;;;5142310;27;19923;-58
2022/04/13 11:15:45;;;;;;;;;;;21.70;36.50;;;;;;5158580;27;19923;-60
2022/04/13 11:18:11;;;;;;;;;;;21.70;36.40;;;;;;5166007;27;20349;-60
2022/04/13 11:20:38;;;;;;;;;;;21.70;36.20;;;;;;5161832;27;20374;-59
2022/04/13 11:23:08;;;;;;;;;;;21.80;36.10;;;;;;5167270;27;20462;-60
2022/04/13 11:25:50;;;;;;;;;;;21.80;36.00;;;;;;5163746;27;19926;-60
2022/04/13 11:28:22;;;;;;;;;;;21.80;35.90;;;;;;5165704;27;21060;-60
2022/04/13 11:31:04;;;;;;;;;;;21.80;35.90;;;;;;5171061;27;19947;-59
2022/04/13 11:33:49;;;;;;;;;;;21.70;36.10;;;;;;5163504;27;19972;-58
2022/04/13 11:36:15;;;;;;;;;;;21.70;36.20;;;;;;5163954;27;20407;-60
2022/04/13 11:38:47;;;;;;;;;;;21.70;35.90;;;;;;5170747;27;19927;-59
2022/04/13 11:41:13;;;;;;;;;;;21.70;35.70;;;;;;5148536;27;19933;-59
2022/04/13 11:43:39;;;;;;;;;;;21.80;35.50;;;;;;5165432;27;20013;-60
2022/04/13 11:46:05;;;;;;;;;;;21.80;35.40;;;;;;5170877;27;20335;-60
2022/04/13 11:48:34;;;;;;;;;;;21.70;35.40;;;;;;5165286;27;19930;-59
2022/04/13 11:51:18;;;;;;;;;;;21.70;35.10;;;;;;5165472;27;19923;-60
2022/04/13 11:53:54;;;;;;;;;;;21.80;35.00;;;;;;5166111;27;19927;-60
2022/04/13 11:56:36;;;;;;;;;;;21.80;34.90;;;;;;5165364;27;19975;-58
2022/04/13 11:59:02;;;;;;;;;;;21.80;34.90;;;;;;5146494;27;20278;-58
2022/04/13 12:01:28;;;;;;;;;;;21.80;34.80;;;;;;5170486;27;19998;-60
2022/04/13 12:03:57;;;;;;;;;;;21.80;34.90;;;;;;5165092;27;20353;-60
2022/04/13 12:06:24;;;;;;;;;;;21.80;35.10;;;;;;5146333;27;20029;-60
2022/04/13 12:08:53;;;;;;;;;;;21.70;35.00;;;;;;5170242;27;19927;-59
2022/04/13 12:11:20;;;;;;;;;;;21.80;34.80;;;;;;5159714;27;19922;-60
2022/04/13 12:13:48;;;;;;;;;;;21.70;34.90;;;;;;5165430;27;19927;-58
2022/04/13 12:16:19;;;;;;;;;;;21.10;35.80;;;;;;5170398;27;19971;-61
2022/04/13 12:18:44;;;;;;;;;;;21.10;35.60;;;;;;5164856;27;19926;-59
2022/04/13 12:21:11;;;;;;;;;;;20.90;36.40;;;;;;5170275;27;19937;-59
2022/04/13 12:23:37;;;;;;;;;;;21.30;36.30;;;;;;5164955;27;20428;-57
2022/04/13 12:26:03;;;;;;;;;;;21.50;35.90;;;;;;5164827;27;19933;-59
2022/04/13 12:28:29;;;;;;;;;;;21.60;35.70;;;;;;5166503;27;20378;-59
2022/04/13 12:31:10;;;;;;;;;;;21.60;35.70;;;;;;5162223;27;19975;-60
2022/04/13 12:33:36;;;;;;;;;;;21.60;35.60;;;;;;5164472;27;19953;-59
2022/04/13 12:36:03;;;;;;;;;;;21.60;35.70;;;;;;5150828;27;19945;-58
2022/04/13 12:38:30;;;;;;;;;;;21.70;35.60;;;;;;5164383;27;19929;-59
2022/04/13 12:41:14;;;;;;;;;;;21.70;35.60;;;;;;5164431;27;20005;-59
2022/04/13 12:43:41;;;;;;;;;;;21.70;35.60;;;;;;5151282;27;19923;-59
2022/04/13 12:46:07;;;;;;;;;;;21.70;35.50;;;;;;5164552;27;20358;-60
2022/04/13 12:48:33;;;;;;;;;;;21.70;35.60;;;;;;5160629;27;19952;-58
2022/04/13 12:51:00;;;;;;;;;;;21.70;35.50;;;;;;5168585;27;19984;-59
2022/04/13 12:53:25;;;;;;;;;;;21.70;35.50;;;;;;5164230;27;20037;-60
2022/04/13 12:55:55;;;;;;;;;;;21.70;35.40;;;;;;5169647;27;20514;-58
2022/04/13 12:58:21;;;;;;;;;;;21.80;35.30;;;;;;5164393;27;20017;-59
2022/04/13 13:00:53;;;;;;;;;;;21.80;35.30;;;;;;5164361;27;20397;-58
2022/04/13 13:03:20;;;;;;;;;;;21.80;35.40;;;;;;5169591;27;19930;-59
2022/04/13 13:05:46;;;;;;;;;;;21.80;35.30;;;;;;5160219;27;19931;-58
2022/04/13 13:08:12;;;;;;;;;;;21.80;35.40;;;;;;5162759;27;20261;-59
2022/04/13 13:10:37;;;;;;;;;;;21.80;35.20;;;;;;5169604;27;20404;-57
2022/04/13 13:13:13;;;;;;;;;;;21.80;35.10;;;;;;5164021;27;19923;-59
2022/04/13 13:15:39;;;;;;;;;;;21.90;35.00;;;;;;5166061;27;19966;-58
2022/04/13 13:18:05;;;;;;;;;;;21.80;35.00;;;;;;5167786;27;20387;-59
2022/04/13 13:20:31;;;;;;;;;;;21.80;34.90;;;;;;5163882;27;19980;-60
2022/04/13 13:22:57;;;;;;;;;;;21.80;35.00;;;;;;5149176;27;20505;-57
2022/04/13 13:25:23;;;;;;;;;;;22.00;34.70;;;;;;5158659;27;19922;-59
2022/04/13 13:27:54;;;;;;;;;;;22.00;34.60;;;;;;5164206;27;19923;-59
2022/04/13 13:30:20;;;;;;;;;;;22.00;34.30;;;;;;5169175;27;19922;-59
2022/04/13 13:32:50;;;;;;;;;;;22.00;34.50;;;;;;5163878;27;19975;-59
2022/04/13 13:35:16;;;;;;;;;;;21.90;34.60;;;;;;5163717;27;19926;-58
2022/04/13 13:37:43;;;;;;;;;;;21.90;34.60;;;;;;5168988;27;19929;-58
2022/04/13 13:40:27;;;;;;;;;;;22.00;34.50;;;;;;5163773;27;20278;-58
2022/04/13 13:42:53;;;;;;;;;;;22.10;34.30;;;;;;5158819;27;19929;-59
2022/04/13 13:45:19;;;;;;;;;;;22.00;34.00;;;;;;5168029;27;19931;-53
2022/04/13 13:47:45;;;;;;;;;;;20.20;37.60;;;;;;5162834;27;19927;-52
2022/04/13 13:50:11;;;;;;;;;;;20.80;37.00;;;;;;5168221;27;19966;-53
2022/04/13 13:52:37;;;;;;;;;;;21.40;35.70;;;;;;5163432;27;19969;-52
2022/04/13 13:55:03;;;;;;;;;;;21.60;35.20;;;;;;5163450;27;19950;-52
2022/04/13 13:57:29;;;;;;;;;;;21.80;35.00;;;;;;5168709;27;20022;-52
2022/04/13 13:59:54;;;;;;;;;;;21.80;35.00;;;;;;5162399;27;19930;-54
2022/04/13 14:02:20;;;;;;;;;;;21.80;34.90;;;;;;5158525;27;19978;-53
2022/04/13 14:04:46;;;;;;;;;;;21.90;34.80;;;;;;5168506;27;20404;-52
2022/04/13 14:07:12;;;;;;;;;;;21.90;34.90;;;;;;5163158;27;19923;-52
2022/04/13 14:09:38;;;;;;;;;;;21.90;35.20;;;;;;5149669;27;19923;-52
2022/04/13 14:12:04;;;;;;;;;;;21.90;35.40;;;;;;5163181;27;19934;-55
2022/04/13 14:14:30;;;;;;;;;;;21.90;35.50;;;;;;5163265;27;19926;-53
2022/04/13 14:16:56;;;;;;;;;;;22.00;35.40;;;;;;5168446;27;20434;-52